Time;durP1;ratioP1;P1;durP2;ratioP2;P2;SDS_P1;SDS_P2;PMS_P1;PMS_P2;Temp;Humidity;BMP_temperature;BMP_pressure;BME280_temperature;BME280_humidity;BME280_pressure;Samples;Min_cycle;Max_cycle;Signal;HPM_P1;HPM_P2
2022/08/14 00:01:59;;;;;;;3.50;3.03;;;;;;;21.55;52.69;100941.41;5039170;28;20049;-74
2022/08/14 00:04:24;;;;;;;6.35;3.47;;;;;;;21.48;53.01;100948.59;5028796;28;20028;-74
2022/08/14 00:06:50;;;;;;;4.07;3.47;;;;;;;21.43;52.99;100940.53;5037947;28;20028;-74
2022/08/14 00:09:15;;;;;;;6.22;3.10;;;;;;;21.39;52.97;100945.44;5026716;28;20397;-74
2022/08/14 00:11:41;;;;;;;6.82;3.50;;;;;;;21.34;52.59;100936.59;5025767;28;20164;-74
2022/08/14 00:14:06;;;;;;;4.70;3.53;;;;;;;21.34;52.09;100939.22;5031945;28;20087;-74
2022/08/14 00:16:32;;;;;;;5.97;2.90;;;;;;;21.34;52.11;100929.50;5043148;28;20033;-74
2022/08/14 00:18:59;;;;;;;3.63;3.17;;;;;;;21.34;52.42;100936.59;5045482;28;20041;-75
2022/08/14 00:21:24;;;;;;;4.82;3.40;;;;;;;21.34;52.58;100933.94;5027661;28;20037;-74
2022/08/14 00:23:52;;;;;;;8.13;3.55;;;;;;;21.30;53.19;100930.94;5040021;28;20394;-73
2022/08/14 00:26:17;;;;;;;3.55;2.92;;;;;;;21.29;52.82;100931.19;5026140;28;20102;-75
2022/08/14 00:28:43;;;;;;;6.45;3.42;;;;;;;21.27;52.86;100922.72;5009436;28;20040;-75
2022/08/14 00:31:08;;;;;;;5.22;3.60;;;;;;;21.22;53.55;100923.38;5027481;28;20045;-74
2022/08/14 00:33:34;;;;;;;5.18;3.33;;;;;;;21.20;53.73;100918.31;5030213;28;20029;-75
2022/08/14 00:36:00;;;;;;;6.95;3.15;;;;;;;21.18;53.55;100914.31;5045578;28;20036;-74
2022/08/14 00:38:25;;;;;;;3.83;3.10;;;;;;;21.16;54.57;100911.09;5006744;28;20037;-75
2022/08/14 00:40:51;;;;;;;4.80;3.33;;;;;;;21.14;54.09;100903.41;5022453;28;20033;-75
2022/08/14 00:43:16;;;;;;;4.60;3.05;;;;;;;21.13;54.36;100903.63;5042758;28;20044;-74
2022/08/14 00:45:42;;;;;;;3.95;3.28;;;;;;;21.10;54.55;100899.59;5031090;28;20098;-75
2022/08/14 00:48:09;;;;;;;3.53;3.20;;;;;;;21.07;54.78;100902.66;5040431;28;20040;-74
2022/08/14 00:50:35;;;;;;;6.40;3.88;;;;;;;21.05;54.69;100899.47;5036140;28;20068;-75
2022/08/14 00:53:00;;;;;;;5.93;3.17;;;;;;;20.98;54.87;100893.47;5041790;28;20033;-75
2022/08/14 00:55:27;;;;;;;10.05;3.42;;;;;;;20.89;55.10;100892.16;5041605;28;20060;-75
2022/08/14 01:00:39;;;;;;;7.28;3.50;;;;;;;20.77;55.33;100887.63;5037363;28;20516;-74
2022/08/14 01:03:06;;;;;;;3.95;3.42;;;;;;;20.77;55.34;100886.84;5038416;28;20040;-74
2022/08/14 01:05:33;;;;;;;4.80;3.15;;;;;;;20.77;55.36;100885.00;5037616;28;20029;-74
2022/08/14 01:08:00;;;;;;;4.70;3.38;;;;;;;20.77;55.60;100882.38;5022599;28;20040;-74
2022/08/14 01:10:49;;;;;;;6.53;3.28;;;;;;;20.77;55.67;100878.94;5038904;28;20902;-75
2022/08/14 01:13:15;;;;;;;5.78;4.13;;;;;;;20.74;55.88;100872.28;5027724;28;20041;-74
2022/08/14 01:15:53;;;;;;;5.07;3.40;;;;;;;20.69;56.25;100871.34;5025742;28;20095;-74
2022/08/14 01:21:07;;;;;;;4.80;3.50;;;;;;;20.57;56.50;100869.41;5036720;28;20044;-74
2022/08/14 01:23:41;;;;;;;4.03;2.88;;;;;;;20.48;56.94;100857.56;5023807;28;20064;-75
2022/08/14 01:26:07;;;;;;;9.48;4.18;;;;;;;20.34;57.62;100851.66;5032512;28;20043;-75
2022/08/14 01:28:36;;;;;;;8.65;3.88;;;;;;;20.18;57.88;100842.50;5031920;28;20033;-74
2022/08/14 01:31:11;;;;;;;6.63;3.78;;;;;;;20.08;58.27;100855.38;5045445;28;20120;-75
2022/08/14 01:33:39;;;;;;;6.55;3.60;;;;;;;20.07;57.96;100840.59;5015884;28;20025;-74
2022/08/14 01:36:07;;;;;;;8.18;3.28;;;;;;;20.03;57.99;100834.94;5032362;28;20504;-74
2022/08/14 01:38:34;;;;;;;5.47;3.70;;;;;;;19.93;58.48;100837.28;5049270;28;20033;-75
2022/08/14 01:41:01;;;;;;;4.10;3.50;;;;;;;19.83;58.81;100829.06;5031615;28;20058;-75
2022/08/14 01:43:29;;;;;;;4.25;3.40;;;;;;;19.79;58.76;100830.53;5045852;28;20028;-75
2022/08/14 01:45:57;;;;;;;4.28;3.35;;;;;;;19.81;58.49;100836.38;5030404;28;20025;-75
2022/08/14 01:48:23;;;;;;;4.80;3.67;;;;;;;19.87;58.29;100826.81;5043071;28;20024;-75
2022/08/14 01:50:49;;;;;;;4.47;3.55;;;;;;;19.89;58.35;100816.88;5044668;28;20044;-74
2022/08/14 01:53:16;;;;;;;6.22;4.07;;;;;;;19.87;58.49;100832.88;5033969;28;20029;-74
2022/08/14 01:55:42;;;;;;;5.47;3.30;;;;;;;19.86;58.61;100823.38;5034286;28;20037;-74
2022/08/14 01:58:14;;;;;;;7.30;3.90;;;;;;;19.87;58.38;100819.72;5014695;28;20059;-74
2022/08/14 02:00:40;;;;;;;5.28;3.45;;;;;;;19.88;58.39;100828.44;5029084;28;20037;-74
2022/08/14 02:03:06;;;;;;;10.55;4.00;;;;;;;19.87;58.49;100824.97;5051774;28;20033;-74
2022/08/14 02:05:32;;;;;;;4.90;3.47;;;;;;;19.86;58.51;100825.22;5028087;28;20032;-74
2022/08/14 02:07:58;;;;;;;6.35;3.92;;;;;;;19.85;58.55;100821.75;5045288;28;20040;-74
2022/08/14 02:10:27;;;;;;;4.28;3.60;;;;;;;19.86;58.37;100833.13;5032743;28;20489;-75
2022/08/14 02:12:55;;;;;;;4.35;3.10;;;;;;;19.86;58.30;100826.00;5028780;28;20041;-74
2022/08/14 02:15:21;;;;;;;6.07;3.33;;;;;;;19.83;58.66;100826.44;5015614;28;20044;-75
2022/08/14 02:17:48;;;;;;;7.82;4.05;;;;;;;19.78;58.84;100823.66;5044197;28;20476;-74
2022/08/14 02:20:14;;;;;;;5.60;3.65;;;;;;;19.62;59.71;100825.78;5028456;28;20049;-75
2022/08/14 02:22:40;;;;;;;6.30;4.63;;;;;;;19.45;60.20;100825.50;5025112;28;20044;-75
2022/08/14 02:25:05;;;;;;;3.83;3.40;;;;;;;19.29;60.41;100827.84;5041966;28;20032;-75
2022/08/14 02:27:31;;;;;;;4.15;3.75;;;;;;;19.15;61.08;100827.94;5044676;28;20033;-75
2022/08/14 02:29:56;;;;;;;5.90;4.55;;;;;;;19.03;61.11;100817.31;5021998;28;20539;-74
2022/08/14 02:32:22;;;;;;;7.72;4.38;;;;;;;19.00;61.30;100824.81;5042520;28;20097;-74
2022/08/14 02:34:47;;;;;;;4.70;3.80;;;;;;;18.97;61.24;100818.16;5043045;28;20039;-74
2022/08/14 02:37:13;;;;;;;5.32;3.95;;;;;;;18.99;61.45;100825.84;5046560;28;20037;-74
2022/08/14 02:39:43;;;;;;;6.22;3.78;;;;;;;19.04;61.05;100825.97;5026301;28;20033;-74
2022/08/14 02:42:12;;;;;;;4.60;3.50;;;;;;;19.07;60.96;100828.19;5021283;28;20108;-74
2022/08/14 02:44:39;;;;;;;4.82;3.63;;;;;;;19.08;61.23;100827.19;5040762;28;20064;-75
2022/08/14 02:47:07;;;;;;;4.65;3.50;;;;;;;19.10;61.30;100824.34;5025467;28;20154;-75
2022/08/14 02:49:33;;;;;;;6.13;3.90;;;;;;;19.06;61.34;100823.94;5041114;28;20056;-75
2022/08/14 02:51:59;;;;;;;8.95;4.20;;;;;;;18.97;61.90;100826.03;5022863;28;20042;-75
2022/08/14 02:54:26;;;;;;;7.88;4.68;;;;;;;18.83;62.09;100824.47;5029175;28;20043;-74
2022/08/14 02:56:53;;;;;;;8.45;4.35;;;;;;;18.68;62.65;100822.94;5029378;28;20112;-74
2022/08/14 02:59:20;;;;;;;4.78;3.70;;;;;;;18.56;62.77;100815.91;5043777;28;20124;-74
2022/08/14 03:01:46;;;;;;;5.57;4.25;;;;;;;18.49;62.73;100827.22;5005235;28;20071;-74
2022/08/14 03:04:14;;;;;;;10.82;5.00;;;;;;;18.48;62.92;100820.38;5029482;28;20064;-74
2022/08/14 03:06:43;;;;;;;8.73;4.57;;;;;;;18.47;63.08;100820.56;5010900;28;20040;-74
2022/08/14 03:09:12;;;;;;;8.07;4.97;;;;;;;18.43;63.35;100812.31;5024379;28;20051;-74
2022/08/14 03:11:38;;;;;;;8.10;4.45;;;;;;;18.34;63.75;100805.66;5025351;28;20047;-74
2022/08/14 03:14:04;;;;;;;5.35;4.85;;;;;;;18.26;64.08;100808.53;5030669;28;20040;-74
2022/08/14 03:16:34;;;;;;;7.57;4.47;;;;;;;18.22;64.22;100804.72;5044868;28;20025;-74
2022/08/14 03:19:01;;;;;;;5.95;4.18;;;;;;;18.21;64.42;100805.72;5049267;28;20032;-74
2022/08/14 03:21:30;;;;;;;16.25;5.43;;;;;;;18.18;64.53;100798.28;5041222;28;20036;-75
2022/08/14 03:24:08;;;;;;;6.55;4.72;;;;;;;18.17;64.65;100807.13;5029043;28;20025;-75
2022/08/14 03:26:35;;;;;;;5.68;4.35;;;;;;;18.15;64.87;100803.91;5028368;28;20033;-74
2022/08/14 03:29:01;;;;;;;6.43;4.53;;;;;;;18.18;64.88;100806.94;5045530;28;20123;-74
2022/08/14 03:31:28;;;;;;;11.07;5.13;;;;;;;18.24;64.50;100802.69;5046913;28;20024;-74
2022/08/14 03:33:54;;;;;;;6.40;4.40;;;;;;;18.26;64.94;100800.66;5041286;28;20448;-74
2022/08/14 03:36:21;;;;;;;8.20;4.05;;;;;;;18.29;64.69;100802.88;5042087;28;20029;-74
2022/08/14 03:38:50;;;;;;;5.78;4.55;;;;;;;18.34;64.43;100799.63;5025704;28;20123;-74
2022/08/14 03:41:19;;;;;;;6.20;4.28;;;;;;;18.38;64.19;100803.44;5012943;28;20845;-75
2022/08/14 03:43:46;;;;;;;5.60;4.63;;;;;;;18.41;64.22;100789.91;5053364;28;20035;-75
2022/08/14 03:46:13;;;;;;;5.63;4.50;;;;;;;18.43;64.27;100790.50;5052032;28;20043;-74
2022/08/14 03:48:40;;;;;;;7.05;4.80;;;;;;;18.44;64.49;100792.94;5024581;28;20040;-74
2022/08/14 03:51:07;;;;;;;6.93;4.88;;;;;;;18.44;64.39;100787.69;5043411;28;20735;-74
2022/08/14 03:53:38;;;;;;;6.75;4.60;;;;;;;18.44;64.07;100795.56;5021626;28;20029;-74
2022/08/14 03:56:04;;;;;;;9.70;4.85;;;;;;;18.47;63.96;100789.06;5024935;28;20044;-74
2022/08/14 03:58:31;;;;;;;5.85;4.60;;;;;;;18.46;63.97;100790.09;5037594;28;20033;-74
2022/08/14 04:01:01;;;;;;;5.75;4.38;;;;;;;18.39;64.55;100786.69;5027963;28;20503;-74
2022/08/14 04:03:26;;;;;;;7.35;4.78;;;;;;;18.30;64.99;100786.09;5027014;28;20033;-74
2022/08/14 04:05:53;;;;;;;6.43;5.28;;;;;;;18.19;65.55;100792.00;5026455;28;21561;-75
2022/08/14 04:08:19;;;;;;;5.63;4.72;;;;;;;18.06;66.19;100784.94;5028645;28;20419;-74
2022/08/14 04:10:46;;;;;;;6.10;4.88;;;;;;;18.00;66.11;100786.59;5031093;28;20040;-74
2022/08/14 04:13:16;;;;;;;6.20;4.85;;;;;;;17.97;66.18;100781.75;5012837;28;20048;-74
2022/08/14 04:15:44;;;;;;;7.70;4.68;;;;;;;17.92;66.36;100786.00;5020414;28;20413;-74
2022/08/14 04:18:10;;;;;;;10.32;4.63;;;;;;;17.82;66.87;100778.50;5046221;28;20090;-74
2022/08/14 04:20:35;;;;;;;10.70;5.47;;;;;;;17.70;67.19;100787.00;5031914;28;20033;-74
2022/08/14 04:23:05;;;;;;;7.43;5.03;;;;;;;17.58;67.71;100796.50;5026965;28;20492;-74
2022/08/14 04:25:32;;;;;;;8.05;5.35;;;;;;;17.54;68.05;100786.59;5010172;28;20025;-74
2022/08/14 04:28:04;;;;;;;9.35;5.63;;;;;;;17.48;68.38;100781.19;5020343;28;20036;-75
2022/08/14 04:30:31;;;;;;;6.40;5.30;;;;;;;17.46;68.65;100777.13;5023692;28;20509;-74
2022/08/14 04:32:57;;;;;;;9.45;5.30;;;;;;;17.42;68.90;100778.53;5037010;28;20037;-75
2022/08/14 04:35:23;;;;;;;8.38;5.35;;;;;;;17.40;69.27;100772.69;5023060;28;20405;-74
2022/08/14 04:43:36;;;;;;;8.02;5.65;;;;;;;17.43;69.53;100767.06;5025160;28;20041;-74
2022/08/14 04:46:05;;;;;;;8.80;5.63;;;;;;;17.48;69.28;100772.50;5042655;28;20037;-74
2022/08/14 04:48:31;;;;;;;10.02;5.55;;;;;;;17.54;69.39;100773.50;5024899;28;20482;-74
2022/08/14 04:50:57;;;;;;;6.97;5.47;;;;;;;17.58;68.96;100765.03;5041188;28;20039;-74
2022/08/14 04:53:25;;;;;;;7.20;5.63;;;;;;;17.65;68.55;100757.16;5025851;28;20032;-75
2022/08/14 04:55:52;;;;;;;11.18;5.85;;;;;;;17.67;68.82;100763.81;5021653;28;20037;-75
2022/08/14 04:58:20;;;;;;;8.18;5.32;;;;;;;17.65;69.63;100759.78;5045700;28;20033;-74
2022/08/14 05:00:49;;;;;;;11.15;5.97;;;;;;;17.59;70.15;100756.16;5024758;28;20083;-74
2022/08/14 05:03:30;;;;;;;12.57;6.03;;;;;;;17.58;70.43;100765.03;5027567;28;20036;-74
2022/08/14 05:05:59;;;;;;;11.65;6.35;;;;;;;17.65;70.73;100765.00;5030306;28;20112;-74
2022/08/14 05:08:25;;;;;;;7.10;5.65;;;;;;;17.66;71.02;100764.03;5055400;28;20114;-74
2022/08/14 05:10:54;;;;;;;8.27;5.70;;;;;;;17.69;70.75;100761.00;5031642;28;20116;-74
2022/08/14 05:13:25;;;;;;;8.35;6.32;;;;;;;17.77;70.61;100754.72;5035972;28;20082;-73
2022/08/14 05:15:53;;;;;;;8.27;5.85;;;;;;;17.82;70.83;100750.50;5027929;28;20060;-75
2022/08/14 05:18:24;;;;;;;10.52;6.60;;;;;;;17.88;70.45;100747.06;5049875;28;20068;-74
2022/08/14 05:20:55;;;;;;;9.60;6.00;;;;;;;17.96;70.04;100750.50;5016927;28;20043;-74
2022/08/14 05:23:26;;;;;;;10.63;6.00;;;;;;;18.05;69.78;100751.88;5015867;28;20393;-74
2022/08/14 05:25:58;;;;;;;8.70;6.38;;;;;;;18.13;70.53;100741.16;5046040;28;20025;-74
2022/08/14 05:28:25;;;;;;;7.82;6.13;;;;;;;18.17;70.60;100739.72;5025683;28;20033;-74
2022/08/14 05:30:56;;;;;;;8.48;6.65;;;;;;;18.23;70.57;100735.44;5028734;28;20033;-74
2022/08/14 05:33:24;;;;;;;11.93;6.07;;;;;;;18.30;70.63;100738.84;5049330;28;20032;-74
2022/08/14 05:35:51;;;;;;;11.68;6.68;;;;;;;18.37;70.70;100737.03;5024702;28;20044;-74
2022/08/14 05:38:20;;;;;;;9.68;7.20;;;;;;;18.45;71.24;100734.16;5024883;28;20099;-74
2022/08/14 05:40:46;;;;;;;10.85;7.75;;;;;;;18.59;71.48;100719.16;5045161;28;20033;-74
2022/08/14 05:43:13;;;;;;;13.98;7.28;;;;;;;18.62;71.71;100726.59;5044271;28;20429;-73
2022/08/14 05:45:39;;;;;;;9.57;6.80;;;;;;;18.68;71.05;100727.56;5031049;28;20063;-74
2022/08/14 05:48:06;;;;;;;12.23;7.10;;;;;;;18.78;71.04;100725.28;5054213;28;20033;-74
2022/08/14 05:50:33;;;;;;;9.07;7.10;;;;;;;18.93;70.54;100722.41;5043211;28;20075;-73
2022/08/14 05:52:59;;;;;;;9.32;7.55;;;;;;;19.18;69.54;100730.28;5029037;28;20124;-74
2022/08/14 05:55:25;;;;;;;8.40;6.47;;;;;;;19.14;69.99;100726.47;5025176;28;20112;-74
2022/08/14 05:57:59;;;;;;;10.13;7.40;;;;;;;19.24;69.52;100713.66;5027648;28;20087;-75
2022/08/14 06:00:30;;;;;;;11.18;6.78;;;;;;;19.40;68.97;100717.56;5028007;28;20039;-74
2022/08/14 06:02:58;;;;;;;8.85;7.03;;;;;;;19.53;69.08;100708.72;5005990;28;20052;-74
2022/08/14 06:05:23;;;;;;;9.93;6.85;;;;;;;20.03;67.74;100721.78;5025792;28;20032;-75
2022/08/14 06:07:48;;;;;;;9.35;6.47;;;;;;;20.49;66.25;100716.94;5041405;28;20094;-75
2022/08/14 06:10:14;;;;;;;11.60;7.50;;;;;;;20.83;64.65;100713.88;5044941;28;20098;-74
2022/08/14 06:12:40;;;;;;;11.10;7.57;;;;;;;21.18;63.43;100722.66;5015325;28;20040;-74
2022/08/14 06:15:07;;;;;;;10.10;7.43;;;;;;;21.52;62.48;100724.75;5039338;28;20191;-74
2022/08/14 06:17:50;;;;;;;11.60;7.20;;;;;;;21.78;62.03;100721.63;5042753;28;20091;-74
2022/08/14 06:20:16;;;;;;;10.10;7.85;;;;;;;22.07;60.92;100718.22;5043502;28;20535;-74
2022/08/14 06:22:42;;;;;;;11.18;7.10;;;;;;;22.27;60.69;100710.72;5039417;28;20407;-74
2022/08/14 06:25:09;;;;;;;11.73;6.95;;;;;;;22.49;59.81;100712.69;5040539;28;20028;-75
2022/08/14 06:27:40;;;;;;;11.75;7.70;;;;;;;22.62;58.67;100712.41;5024469;28;20437;-75
2022/08/14 06:30:08;;;;;;;10.93;7.40;;;;;;;22.62;58.73;100709.78;5012115;28;20040;-74
2022/08/14 06:32:34;;;;;;;7.22;6.53;;;;;;;22.84;58.49;100703.78;5038886;28;20655;-74
2022/08/14 06:35:00;;;;;;;12.32;7.20;;;;;;;22.89;58.78;100696.72;5021598;28;20044;-74
2022/08/14 06:37:26;;;;;;;14.77;7.40;;;;;;;22.88;58.52;100700.41;5040438;28;20125;-74
2022/08/14 06:39:52;;;;;;;11.73;7.28;;;;;;;22.67;59.07;100709.03;5025245;28;20029;-74
2022/08/14 06:42:17;;;;;;;11.93;7.50;;;;;;;22.50;59.25;100706.38;5008208;28;20036;-74
2022/08/14 06:44:43;;;;;;;9.98;6.78;;;;;;;22.46;59.76;100702.63;5026252;28;20460;-75
2022/08/14 06:47:09;;;;;;;9.32;7.18;;;;;;;22.40;60.28;100701.72;5022818;28;20094;-74
2022/08/14 06:49:36;;;;;;;9.15;7.20;;;;;;;22.48;60.63;100703.97;5027662;28;20037;-74
2022/08/14 06:52:03;;;;;;;11.23;7.97;;;;;;;22.54;59.96;100691.66;5026002;28;20032;-75
2022/08/14 06:54:30;;;;;;;15.50;8.23;;;;;;;22.64;59.71;100691.03;5012652;28;20463;-75
2022/08/14 06:56:56;;;;;;;8.43;6.88;;;;;;;22.75;59.45;100684.88;5023563;28;20128;-75
2022/08/14 06:59:21;;;;;;;11.63;6.95;;;;;;;22.79;59.58;100683.34;5041346;28;20029;-75
2022/08/14 07:07:15;;;;;;;12.65;6.72;;;;;;;23.48;56.68;100676.97;5024808;28;20033;-74
2022/08/14 07:09:40;;;;;;;7.68;6.50;;;;;;;23.83;55.68;100666.06;5022548;28;20067;-74
2022/08/14 07:12:07;;;;;;;13.85;7.40;;;;;;;24.26;54.10;100671.50;5024660;28;20041;-75
2022/08/14 07:14:33;;;;;;;9.20;6.55;;;;;;;24.75;53.04;100658.22;5035478;28;20033;-77
2022/08/14 07:16:59;;;;;;;14.60;6.18;;;;;;;25.71;51.04;100653.72;5036735;28;20039;-75
2022/08/14 07:19:24;;;;;;;11.75;6.72;;;;;;;26.35;49.05;100657.84;5019714;28;20062;-74
2022/08/14 07:21:50;;;;;;;10.95;6.45;;;;;;;26.90;48.33;100652.81;5023636;28;20037;-76
2022/08/14 07:24:15;;;;;;;9.73;6.78;;;;;;;27.26;46.75;100659.94;5020261;28;20032;-77
2022/08/14 07:26:42;;;;;;;9.43;6.07;;;;;;;27.29;46.14;100649.53;5018914;28;20059;-77
2022/08/14 07:29:07;;;;;;;18.75;6.30;;;;;;;27.55;45.70;100646.78;5017385;28;20402;-79
2022/08/14 07:31:33;;;;;;;7.35;6.03;;;;;;;27.59;45.72;100650.47;5020892;28;20029;-76
2022/08/14 07:33:58;;;;;;;7.15;5.80;;;;;;;27.46;45.36;100649.19;5023888;28;20052;-73
2022/08/14 07:36:24;;;;;;;10.15;5.30;;;;;;;28.09;44.36;100651.28;5018758;28;20041;-75
2022/08/14 07:38:49;;;;;;;7.28;5.78;;;;;;;27.93;44.49;100655.13;5032651;28;20032;-76
2022/08/14 07:41:15;;;;;;;8.55;5.72;;;;;;;28.44;43.68;100646.75;5036617;28;20381;-73
2022/08/14 07:43:41;;;;;;;6.10;5.18;;;;;;;28.83;43.47;100650.44;5040823;28;20043;-75
2022/08/14 07:46:07;;;;;;;7.32;5.65;;;;;;;28.77;42.92;100652.38;5034585;28;20074;-74
2022/08/14 07:48:37;;;;;;;10.23;5.97;;;;;;;28.75;42.86;100643.84;5022463;28;20465;-76
2022/08/14 07:51:03;;;;;;;9.93;6.05;;;;;;;28.93;42.42;100640.47;5022355;28;20040;-75
2022/08/14 07:53:28;;;;;;;7.72;5.75;;;;;;;29.07;41.84;100637.13;5006384;28;20044;-76
2022/08/14 07:55:54;;;;;;;10.27;6.25;;;;;;;29.24;41.92;100637.50;5021622;28;20171;-76
2022/08/14 07:58:19;;;;;;;8.95;6.22;;;;;;;29.26;41.80;100630.00;5038531;28;21313;-74
2022/08/14 08:00:45;;;;;;;9.07;5.70;;;;;;;29.50;41.71;100626.50;5035283;28;20100;-76
2022/08/14 08:03:11;;;;;;;10.90;6.07;;;;;;;29.90;40.76;100632.38;5005318;28;20095;-77
2022/08/14 08:05:38;;;;;;;8.30;6.43;;;;;;;29.53;40.74;100638.47;5022864;28;20029;-77
2022/08/14 08:08:05;;;;;;;6.82;5.40;;;;;;;29.71;40.82;100635.03;5030575;28;20045;-77
2022/08/14 08:10:32;;;;;;;7.95;5.75;;;;;;;29.99;41.00;100643.19;5039772;28;20044;-76
2022/08/14 08:13:09;;;;;;;6.43;5.28;;;;;;;30.02;40.33;100647.97;5040340;28;20051;-75
2022/08/14 08:15:42;;;;;;;6.65;5.50;;;;;;;30.60;40.25;100639.56;5037244;28;20044;-76
2022/08/14 08:18:09;;;;;;;;;;;;;;;30.44;39.52;100632.88;5035708;28;20071;-77
2022/08/14 08:20:36;;;;;;;8.18;5.30;;;;;;;30.34;39.31;100633.84;5022144;28;19967;-76
2022/08/14 08:23:04;;;;;;;7.07;5.65;;;;;;;30.98;39.28;100635.97;5019693;28;20037;-76
2022/08/14 08:25:31;;;;;;;7.03;5.40;;;;;;;31.36;38.12;100628.53;5003758;28;20490;-76
2022/08/14 08:27:59;;;;;;;6.60;5.78;;;;;;;31.33;37.85;100622.97;5035546;28;20119;-76
2022/08/14 08:30:26;;;;;;;6.55;5.90;;;;;;;31.72;37.71;100619.75;5024318;28;20044;-75
2022/08/14 08:32:53;;;;;;;8.27;5.78;;;;;;;31.45;37.54;100615.19;5038761;28;20359;-77
2022/08/14 08:35:22;;;;;;;5.85;5.13;;;;;;;31.87;36.99;100613.22;5019927;28;20033;-76
2022/08/14 08:37:49;;;;;;;5.90;5.30;;;;;;;31.75;36.45;100613.75;5039345;28;20493;-77
2022/08/14 08:40:26;;;;;;;7.40;5.78;;;;;;;31.62;36.71;100620.72;5022484;28;20529;-76
2022/08/14 08:42:52;;;;;;;7.13;5.13;;;;;;;32.03;36.94;100615.56;5041468;28;20082;-76
2022/08/14 08:45:19;;;;;;;6.28;5.68;;;;;;;32.06;36.44;100617.63;5009154;28;20045;-76
2022/08/14 08:47:45;;;;;;;11.43;5.50;;;;;;;32.37;36.17;100629.19;5043855;28;20065;-76
2022/08/14 08:50:26;;;;;;;5.75;5.00;;;;;;;32.40;34.93;100633.16;5026863;28;20041;-75
2022/08/14 08:52:53;;;;;;;6.10;5.50;;;;;;;32.46;35.53;100620.41;5030371;28;20111;-76
2022/08/14 08:55:28;;;;;;;8.60;5.72;;;;;;;32.67;35.64;100607.28;5027027;28;20048;-77
2022/08/14 08:57:56;;;;;;;6.85;5.47;;;;;;;32.21;35.67;100603.84;5043825;28;20044;-75
2022/08/14 09:00:21;;;;;;;12.00;5.50;;;;;;;32.34;35.38;100611.03;5044830;28;20059;-76
2022/08/14 09:02:59;;;;;;;8.68;5.15;;;;;;;32.57;34.94;100602.97;5049653;28;20029;-74
2022/08/14 09:05:25;;;;;;;6.07;5.47;;;;;;;32.73;34.99;100601.44;5044174;28;20040;-77
2022/08/14 09:07:51;;;;;;;5.68;4.68;;;;;;;32.76;34.34;100600.06;5048066;28;20087;-78
2022/08/14 09:10:16;;;;;;;8.45;4.90;;;;;;;32.88;34.60;100602.13;5026721;28;20037;-77
2022/08/14 09:12:42;;;;;;;7.22;5.13;;;;;;;33.02;33.64;100600.13;5028906;28;20032;-77
2022/08/14 09:15:08;;;;;;;9.73;4.93;;;;;;;33.24;34.32;100601.13;5033189;28;20067;-76
2022/08/14 09:17:35;;;;;;;7.88;5.43;;;;;;;32.84;34.37;100601.97;5029850;28;20029;-79
2022/08/14 09:20:01;;;;;;;5.70;5.05;;;;;;;33.10;34.63;100588.59;5031417;28;20490;-75
2022/08/14 09:22:27;;;;;;;5.43;4.93;;;;;;;33.22;34.10;100585.34;5051357;28;20126;-79
2022/08/14 09:24:54;;;;;;;6.47;4.18;;;;;;;33.07;32.83;100581.16;5039843;28;20036;-78
2022/08/14 09:27:20;;;;;;;11.50;5.03;;;;;;;33.15;32.89;100582.31;5033266;28;20087;-77
2022/08/14 09:29:46;;;;;;;6.68;4.85;;;;;;;33.53;33.17;100582.53;5036058;28;20539;-77
2022/08/14 09:32:19;;;;;;;5.95;5.05;;;;;;;33.21;34.13;100573.03;5019635;28;20036;-78
2022/08/14 09:35:15;;;;;;;5.00;4.50;;;;;;;33.23;33.52;100573.50;5034106;28;20096;-78
2022/08/14 09:38:24;;;;;;;4.97;4.57;;;;;;;33.27;33.49;100566.38;5021949;28;20136;-77
2022/08/14 09:41:08;;;;;;;7.22;5.07;;;;;;;33.15;34.16;100560.84;5049228;28;20523;-77
2022/08/14 09:43:53;;;;;;;5.82;4.57;;;;;;;33.19;33.44;100555.63;5048296;28;20037;-76
2022/08/14 09:46:19;;;;;;;8.23;4.63;;;;;;;33.34;33.46;100558.66;5046139;28;20112;-76
2022/08/14 09:48:45;;;;;;;8.02;5.18;;;;;;;33.45;32.50;100559.09;5046108;28;20546;-77
2022/08/14 09:51:24;;;;;;;7.47;4.65;;;;;;;33.17;32.66;100547.88;5026771;28;20032;-76
2022/08/14 09:54:08;;;;;;;4.85;4.13;;;;;;;33.23;32.83;100556.56;5028335;28;20470;-77
2022/08/14 09:56:49;;;;;;;5.72;5.20;;;;;;;32.89;33.50;100541.97;5025087;28;20044;-76
2022/08/14 09:59:21;;;;;;;5.03;4.57;;;;;;;33.09;33.86;100546.75;5050501;28;20036;-78
2022/08/14 10:01:48;;;;;;;10.65;5.55;;;;;;;33.06;33.62;100541.19;5023140;28;20406;-78
2022/08/14 10:04:22;;;;;;;5.90;5.05;;;;;;;33.09;33.67;100541.38;5037623;28;20037;-78
2022/08/14 10:06:48;;;;;;;6.65;5.63;;;;;;;33.37;32.96;100538.41;5041262;28;20029;-76
2022/08/14 10:09:14;;;;;;;6.03;4.65;;;;;;;33.45;33.07;100534.94;5044859;28;20550;-77
2022/08/14 10:11:41;;;;;;;8.30;4.90;;;;;;;33.20;31.88;100530.38;5031367;28;20032;-78
2022/08/14 10:14:17;;;;;;;7.15;4.63;;;;;;;33.04;32.38;100517.38;5041654;28;20029;-78
2022/08/14 10:16:51;;;;;;;5.35;4.85;;;;;;;33.29;32.85;100526.56;5040101;28;20037;-76
2022/08/14 10:19:18;;;;;;;8.05;3.78;;;;;;;33.45;30.61;100518.03;5026915;28;20106;-76
2022/08/14 10:21:56;;;;;;;5.25;4.35;;;;;;;33.72;30.13;100517.72;5036079;28;20040;-77
2022/08/14 10:24:24;;;;;;;5.32;4.25;;;;;;;33.58;30.23;100511.69;5039250;28;20048;-74
2022/08/14 10:26:54;;;;;;;6.03;4.20;;;;;;;33.47;30.35;100508.53;5025365;28;20115;-74
2022/08/14 10:29:31;;;;;;;5.07;4.10;;;;;;;33.71;31.26;100505.38;5025522;28;20045;-77
2022/08/14 10:32:00;;;;;;;7.60;3.88;;;;;;;34.01;30.35;100510.84;5026553;28;20056;-76
2022/08/14 10:34:38;;;;;;;5.18;3.67;;;;;;;33.94;28.77;100513.22;5047539;28;20036;-75
2022/08/14 10:37:10;;;;;;;5.82;3.90;;;;;;;33.83;29.71;100507.44;5024208;28;20048;-76
2022/08/14 10:39:37;;;;;;;4.53;4.13;;;;;;;33.74;30.90;100498.59;5022733;28;20036;-77
2022/08/14 10:42:13;;;;;;;5.47;4.40;;;;;;;33.78;30.77;100498.75;5023704;28;20034;-76
2022/08/14 10:44:44;;;;;;;6.72;4.43;;;;;;;33.78;30.54;100488.78;5041449;28;20449;-76
2022/08/14 10:47:11;;;;;;;8.40;4.72;;;;;;;34.04;30.08;100501.34;5024998;28;20029;-77
2022/08/14 10:49:48;;;;;;;7.13;4.43;;;;;;;33.60;30.43;100482.59;5023289;28;20035;-75
2022/08/14 10:52:23;;;;;;;9.07;4.45;;;;;;;33.75;30.47;100482.13;5025494;28;20435;-77
2022/08/14 10:54:50;;;;;;;5.15;4.20;;;;;;;34.06;29.55;100477.63;5012016;28;20607;-78
2022/08/14 10:57:24;;;;;;;6.85;3.70;;;;;;;33.96;29.95;100472.59;5030742;28;20127;-78
2022/08/14 11:00:00;;;;;;;7.10;3.45;;;;;;;33.75;30.33;100484.81;5047840;28;20115;-77
2022/08/14 11:02:29;;;;;;;6.53;3.92;;;;;;;34.13;29.12;100476.00;5044895;28;20128;-75
2022/08/14 11:05:12;;;;;;;5.40;3.70;;;;;;;33.96;29.11;100483.34;5026746;28;20033;-77
2022/08/14 11:07:40;;;;;;;3.72;3.33;;;;;;;34.11;28.62;100469.34;5039824;28;20633;-77
2022/08/14 11:10:10;;;;;;;6.05;3.50;;;;;;;34.03;28.28;100470.97;5028380;28;20072;-79
2022/08/14 11:12:46;;;;;;;3.50;3.20;;;;;;;34.11;28.46;100474.72;5047448;28;20075;-80
2022/08/14 11:15:21;;;;;;;5.15;3.10;;;;;;;34.12;28.12;100468.25;5024853;28;20186;-77
2022/08/14 11:17:49;;;;;;;4.22;3.80;;;;;;;34.13;27.54;100464.44;5026079;28;20386;-77
2022/08/14 11:20:18;;;;;;;4.97;3.92;;;;;;;34.06;28.25;100464.19;5001647;28;20124;-77
2022/08/14 11:22:44;;;;;;;4.82;3.53;;;;;;;34.18;28.12;100460.81;5040185;28;20039;-78
2022/08/14 11:25:15;;;;;;;6.35;3.58;;;;;;;34.57;28.08;100453.50;5019897;28;20450;-75
2022/08/14 11:27:45;;;;;;;5.72;3.53;;;;;;;34.27;27.34;100459.66;5035929;28;20124;-76
2022/08/14 11:30:17;;;;;;;7.72;3.13;;;;;;;34.32;27.70;100456.81;5009767;28;20379;-77
2022/08/14 11:32:44;;;;;;;3.65;2.88;;;;;;;34.52;27.93;100441.00;5022592;28;20055;-78
2022/08/14 11:35:14;;;;;;;7.82;3.03;;;;;;;34.59;27.03;100446.66;5008635;28;20044;-79
2022/08/14 11:37:53;;;;;;;5.63;3.20;;;;;;;34.47;26.64;100442.00;5021448;28;20116;-76
2022/08/14 11:40:22;;;;;;;4.90;2.85;;;;;;;34.66;26.56;100438.88;5038011;28;20026;-77
2022/08/14 11:42:48;;;;;;;3.38;3.05;;;;;;;34.70;25.89;100431.72;5037951;28;21795;-78
2022/08/14 11:45:15;;;;;;;4.13;3.25;;;;;;;34.61;26.01;100427.50;5016505;28;20631;-77
2022/08/14 11:47:41;;;;;;;3.10;2.60;;;;;;;34.89;25.30;100422.41;5024606;28;20024;-77